Time,TemperatureF,DewpointF,PressureIn,WindDirection,WindDirectionDegrees,WindSpeedMPH,WindSpeedGustMPH,Humidity,HourlyPrecipIn,Conditions,Clouds,dailyrainin,SoftwareType,DateUTC
2013-02-04 00:14:00,23.0,22.5,29.61,ENE,67,0.0,-999.0,98,-99.99,,,0.00,Acu-Link.com,2013-02-04 05:14:00,
2013-02-04 00:29:00,23.0,22.5,29.61,WNW,292,0.0,-999.0,98,-99.99,,,0.00,Acu-Link.com,2013-02-04 05:29:00,
2013-02-04 00:44:00,23.0,22.5,29.61,NW,315,0.0,-999.0,98,-99.99,,,0.00,Acu-Link.com,2013-02-04 05:44:00,
2013-02-04 00:59:00,23.0,22.5,29.61,ESE,112,0.0,-999.0,98,-99.99,,,0.00,Acu-Link.com,2013-02-04 05:59:00,
2013-02-04 01:15:00,23.0,22.5,29.61,NNE,22,0.0,-999.0,98,-99.99,,,0.00,Acu-Link.com,2013-02-04 06:15:00,
2013-02-04 01:30:00,23.0,22.5,29.62,NNW,337,1.1,-999.0,98,-99.99,,,0.00,Acu-Link.com,2013-02-04 06:30:00,
2013-02-04 01:45:00,23.0,22.5,29.62,SSW,202,1.1,-999.0,98,-99.99,,,0.00,Acu-Link.com,2013-02-04 06:45:00,
2013-02-04 02:01:00,23.0,22.5,29.62,WNW,292,2.7,-999.0,98,-99.99,,,0.00,Acu-Link.com,2013-02-04 07:01:00,
2013-02-04 02:16:00,23.0,22.5,29.62,West,270,0.0,-999.0,98,-99.99,,,0.00,Acu-Link.com,2013-02-04 07:16:00,
2013-02-04 02:31:00,23.0,22.5,29.63,NNW,337,1.1,-999.0,98,-99.99,,,0.00,Acu-Link.com,2013-02-04 07:31:00,
2013-02-04 02:46:00,23.0,22.5,29.62,West,270,2.0,-999.0,98,-99.99,,,0.00,Acu-Link.com,2013-02-04 07:46:00,
2013-02-04 03:02:00,23.0,22.5,29.63,NNE,22,1.6,-999.0,98,-99.99,,,0.00,Acu-Link.com,2013-02-04 08:02:00,
2013-02-04 03:17:00,23.0,22.5,29.63,West,270,2.7,-999.0,98,-99.99,,,0.00,Acu-Link.com,2013-02-04 08:17:00,
2013-02-04 03:32:00,23.0,22.5,29.63,WNW,292,2.0,-999.0,98,-99.99,,,0.00,Acu-Link.com,2013-02-04 08:32:00,
2013-02-04 03:47:00,23.0,22.5,29.63,NNE,22,2.7,-999.0,98,-99.99,,,0.00,Acu-Link.com,2013-02-04 08:47:00,
2013-02-04 04:02:00,23.0,22.5,29.64,WNW,292,4.7,-999.0,98,-99.99,,,0.00,Acu-Link.com,2013-02-04 09:02:00,
2013-02-04 04:18:00,23.0,22.5,29.64,West,270,2.0,-999.0,98,-99.99,,,0.00,Acu-Link.com,2013-02-04 09:18:00,
2013-02-04 04:33:00,23.0,22.5,29.65,West,270,2.0,-999.0,98,-99.99,,,0.00,Acu-Link.com,2013-02-04 09:33:00,
2013-02-04 04:48:00,23.0,22.5,29.65,NW,315,1.6,-999.0,98,-99.99,,,0.00,Acu-Link.com,2013-02-04 09:48:00,
2013-02-04 05:03:00,21.2,20.7,29.65,West,270,2.7,-999.0,98,-99.99,,,0.00,Acu-Link.com,2013-02-04 10:03:00,
2013-02-04 05:19:00,21.2,20.7,29.66,West,270,2.0,-999.0,98,-99.99,,,0.00,Acu-Link.com,2013-02-04 10:19:00,
2013-02-04 05:34:00,21.2,20.7,29.66,West,270,3.1,-999.0,98,-99.99,,,0.00,Acu-Link.com,2013-02-04 10:34:00,
2013-02-04 05:49:00,21.2,20.2,29.67,West,270,2.7,-999.0,96,-99.99,,,0.00,Acu-Link.com,2013-02-04 10:49:00,
2013-02-04 06:05:00,21.2,20.7,29.67,ENE,67,9.8,-999.0,98,-99.99,,,0.00,Acu-Link.com,2013-02-04 11:05:00,
2013-02-04 06:20:00,21.2,20.7,29.68,WSW,247,0.0,-999.0,98,-99.99,,,0.00,Acu-Link.com,2013-02-04 11:20:00,
2013-02-04 06:35:00,21.2,20.7,29.69,WSW,247,1.6,-999.0,98,-99.99,,,0.00,Acu-Link.com,2013-02-04 11:35:00,
2013-02-04 06:50:00,21.2,20.7,29.70,West,270,0.0,-999.0,98,-99.99,,,0.00,Acu-Link.com,2013-02-04 11:50:00,
2013-02-04 07:06:00,21.2,20.7,29.70,South,180,0.0,-999.0,98,-99.99,,,0.00,Acu-Link.com,2013-02-04 12:06:00,
2013-02-04 07:21:00,19.4,18.9,29.71,WNW,292,0.0,-999.0,98,-99.99,,,0.00,Acu-Link.com,2013-02-04 12:21:00,
2013-02-04 07:36:00,19.4,18.9,29.71,ESE,112,0.0,-999.0,98,-99.99,,,0.00,Acu-Link.com,2013-02-04 12:36:00,
2013-02-04 07:52:00,21.2,20.7,29.71,North,0,0.0,-999.0,98,-99.99,,,0.00,Acu-Link.com,2013-02-04 12:52:00,
2013-02-04 08:07:00,21.2,20.5,29.71,WSW,247,1.1,-999.0,97,-99.99,,,0.00,Acu-Link.com,2013-02-04 13:07:00,
2013-02-04 08:22:00,23.0,21.5,29.71,NNE,22,1.6,-999.0,94,-99.99,,,0.00,Acu-Link.com,2013-02-04 13:22:00,
2013-02-04 08:38:00,23.0,21.0,29.72,NW,315,1.1,-999.0,92,-99.99,,,0.00,Acu-Link.com,2013-02-04 13:38:00,
2013-02-04 08:53:00,23.0,21.3,29.71,West,270,3.6,-999.0,93,-99.99,,,0.00,Acu-Link.com,2013-02-04 13:53:00,
2013-02-04 09:08:00,23.0,20.5,29.72,WNW,292,4.0,-999.0,90,-99.99,,,0.00,Acu-Link.com,2013-02-04 14:08:00,
2013-02-04 09:23:00,24.8,21.8,29.72,WNW,292,4.0,-999.0,88,-99.99,,,0.00,Acu-Link.com,2013-02-04 14:23:00,
2013-02-04 09:39:00,24.8,21.5,29.71,NE,45,2.0,-999.0,87,-99.99,,,0.00,Acu-Link.com,2013-02-04 14:39:00,
2013-02-04 09:54:00,26.6,22.7,29.71,ENE,67,3.1,-999.0,85,-99.99,,,0.00,Acu-Link.com,2013-02-04 14:54:00,
2013-02-04 10:09:00,26.6,23.0,29.71,NNE,22,4.7,-999.0,86,-99.99,,,0.00,Acu-Link.com,2013-02-04 15:09:00,
2013-02-04 10:25:00,26.6,25.9,29.71,WNW,292,3.6,-999.0,97,-99.99,,,0.00,Acu-Link.com,2013-02-04 15:25:00,
2013-02-04 10:40:00,26.6,26.1,29.71,ENE,67,2.0,-999.0,98,-99.99,,,0.00,Acu-Link.com,2013-02-04 15:40:00,
2013-02-04 10:55:00,28.4,27.2,29.71,ENE,67,3.6,-999.0,95,-99.99,,,0.00,Acu-Link.com,2013-02-04 15:55:00,
2013-02-04 11:11:00,26.6,24.9,29.71,NNE,22,6.3,-999.0,93,-99.99,,,0.00,Acu-Link.com,2013-02-04 16:11:00,
2013-02-04 11:26:00,26.6,24.1,29.70,SSW,202,2.0,-999.0,90,-99.99,,,0.00,Acu-Link.com,2013-02-04 16:26:00,
2013-02-04 11:41:00,26.6,24.6,29.70,SW,225,3.6,-999.0,92,-99.99,,,0.00,Acu-Link.com,2013-02-04 16:41:00,
2013-02-04 11:56:00,26.6,24.6,29.70,South,180,2.7,-999.0,92,-99.99,,,0.00,Acu-Link.com,2013-02-04 16:56:00,
2013-02-04 12:12:00,26.6,24.1,29.69,South,180,5.1,-999.0,90,-99.99,,,0.00,Acu-Link.com,2013-02-04 17:12:00,
2013-02-04 12:27:00,28.4,26.4,29.70,SSW,202,2.7,-999.0,92,-99.99,,,0.00,Acu-Link.com,2013-02-04 17:27:00,
2013-02-04 12:42:00,26.6,25.1,29.70,NW,315,7.2,-999.0,94,-99.99,,,0.00,Acu-Link.com,2013-02-04 17:42:00,
2013-02-04 12:58:00,28.4,27.4,29.70,NE,45,4.0,-999.0,96,-99.99,,,0.00,Acu-Link.com,2013-02-04 17:58:00,
2013-02-04 13:13:00,28.4,25.8,29.70,North,0,8.3,-999.0,90,-99.99,,,0.00,Acu-Link.com,2013-02-04 18:13:00,
2013-02-04 13:28:00,26.6,24.1,29.71,NNW,337,6.3,-999.0,90,-99.99,,,0.00,Acu-Link.com,2013-02-04 18:28:00,
2013-02-04 13:44:00,26.6,24.1,29.71,SW,225,7.2,-999.0,90,-99.99,,,0.00,Acu-Link.com,2013-02-04 18:44:00,
2013-02-04 13:59:00,28.4,27.9,29.71,WNW,292,7.8,-999.0,98,-99.99,,,0.00,Acu-Link.com,2013-02-04 18:59:00,
2013-02-04 14:14:00,28.4,27.9,29.72,West,270,3.6,-999.0,98,-99.99,,,0.00,Acu-Link.com,2013-02-04 19:14:00,
2013-02-04 14:29:00,28.4,27.9,29.71,West,270,3.6,-999.0,98,-99.99,,,0.00,Acu-Link.com,2013-02-04 19:29:00,
2013-02-04 14:45:00,28.4,27.9,29.72,NW,315,4.0,-999.0,98,-99.99,,,0.00,Acu-Link.com,2013-02-04 19:45:00,
2013-02-04 15:00:00,28.4,27.9,29.71,SSW,202,2.7,-999.0,98,-99.99,,,0.00,Acu-Link.com,2013-02-04 20:00:00,
2013-02-04 15:15:00,28.4,27.9,29.71,WNW,292,2.7,-999.0,98,-99.99,,,0.00,Acu-Link.com,2013-02-04 20:15:00,
2013-02-04 15:31:00,28.4,27.9,29.71,NNW,337,4.7,-999.0,98,-99.99,,,0.00,Acu-Link.com,2013-02-04 20:31:00,
2013-02-04 15:46:00,26.6,26.1,29.72,West,270,2.0,-999.0,98,-99.99,,,0.00,Acu-Link.com,2013-02-04 20:46:00,
2013-02-04 16:01:00,26.6,25.9,29.72,NW,315,2.0,-999.0,97,-99.99,,,0.00,Acu-Link.com,2013-02-04 21:01:00,
2013-02-04 16:17:00,26.6,26.1,29.72,West,270,1.1,-999.0,98,-99.99,,,0.00,Acu-Link.com,2013-02-04 21:17:00,
2013-02-04 16:32:00,26.6,26.1,29.72,SW,225,1.6,-999.0,98,-99.99,,,0.00,Acu-Link.com,2013-02-04 21:32:00,
2013-02-04 16:47:00,24.8,23.1,29.73,North,0,0.0,-999.0,93,-99.99,,,0.00,Acu-Link.com,2013-02-04 21:47:00,
2013-02-04 17:02:00,23.0,22.0,29.74,NNE,22,6.3,-999.0,96,-99.99,,,0.00,Acu-Link.com,2013-02-04 22:02:00,
2013-02-04 17:18:00,23.0,22.5,29.74,WSW,247,0.0,-999.0,98,-99.99,,,0.00,Acu-Link.com,2013-02-04 22:18:00,
2013-02-04 17:33:00,23.0,21.0,29.75,WNW,292,2.0,-999.0,92,-99.99,,,0.00,Acu-Link.com,2013-02-04 22:33:00,
2013-02-04 17:48:00,21.2,19.0,29.76,East,90,0.0,-999.0,91,-99.99,,,0.78,Acu-Link.com,2013-02-04 22:48:00,
2013-02-04 18:04:00,21.2,19.7,29.76,WNW,292,2.0,-999.0,94,-99.99,,,0.78,Acu-Link.com,2013-02-04 23:04:00,
2013-02-04 18:19:00,21.2,19.5,29.76,NNW,337,2.0,-999.0,93,-99.99,,,0.78,Acu-Link.com,2013-02-04 23:19:00,
2013-02-04 18:34:00,21.2,19.5,29.77,NNW,337,2.0,-999.0,93,-99.99,,,0.78,Acu-Link.com,2013-02-04 23:34:00,
2013-02-04 18:50:00,19.4,18.7,29.78,NNW,337,6.3,-999.0,97,-99.99,,,0.78,Acu-Link.com,2013-02-04 23:50:00,
2013-02-04 19:05:00,19.4,18.7,29.79,NNE,22,0.0,-999.0,97,-99.99,,,0.78,Acu-Link.com,2013-02-05 00:05:00,
2013-02-04 19:20:00,19.4,18.9,29.78,SSE,157,0.0,-999.0,98,-99.99,,,0.78,Acu-Link.com,2013-02-05 00:20:00,
2013-02-04 19:36:00,19.4,18.9,29.79,East,90,0.0,-999.0,98,-99.99,,,0.78,Acu-Link.com,2013-02-05 00:36:00,
2013-02-04 19:51:00,19.4,18.9,29.80,NE,45,0.0,-999.0,98,-99.99,,,0.78,Acu-Link.com,2013-02-05 00:51:00,
2013-02-04 20:06:00,19.4,18.9,29.79,ENE,67,0.0,-999.0,98,-99.99,,,0.78,Acu-Link.com,2013-02-05 01:06:00,
2013-02-04 20:21:00,17.6,17.1,29.79,ENE,67,0.0,-999.0,98,-99.99,,,0.78,Acu-Link.com,2013-02-05 01:21:00,
2013-02-04 20:37:00,17.6,17.1,29.80,ESE,112,0.0,-999.0,98,-99.99,,,0.78,Acu-Link.com,2013-02-05 01:37:00,
2013-02-04 20:52:00,17.6,17.1,29.80,WNW,292,0.0,-999.0,98,-99.99,,,0.78,Acu-Link.com,2013-02-05 01:52:00,
2013-02-04 21:07:00,15.8,15.3,29.80,West,270,0.0,-999.0,98,-99.99,,,0.78,Acu-Link.com,2013-02-05 02:07:00,
2013-02-04 21:23:00,15.8,15.3,29.80,West,270,0.0,-999.0,98,-99.99,,,1.56,Acu-Link.com,2013-02-05 02:23:00,
2013-02-04 21:38:00,15.8,15.3,29.80,West,270,0.0,-999.0,98,-99.99,,,1.56,Acu-Link.com,2013-02-05 02:38:00,
2013-02-04 21:53:00,14.0,13.5,29.79,ENE,67,0.0,-999.0,98,-99.99,,,1.56,Acu-Link.com,2013-02-05 02:53:00,
2013-02-04 22:08:00,14.0,13.5,29.80,ENE,67,0.0,-999.0,98,-99.99,,,1.56,Acu-Link.com,2013-02-05 03:08:00,
2013-02-04 22:24:00,14.0,13.5,29.80,WNW,292,0.0,-999.0,98,-99.99,,,1.56,Acu-Link.com,2013-02-05 03:24:00,
2013-02-04 22:39:00,14.0,13.5,29.80,West,270,0.0,-999.0,98,-99.99,,,1.56,Acu-Link.com,2013-02-05 03:39:00,
2013-02-04 22:54:00,15.8,15.3,29.80,NE,45,0.0,-999.0,98,-99.99,,,1.56,Acu-Link.com,2013-02-05 03:54:00,
2013-02-04 23:09:00,17.6,17.1,29.80,East,90,0.0,-999.0,98,-99.99,,,1.56,Acu-Link.com,2013-02-05 04:09:00,
2013-02-04 23:25:00,17.6,17.1,29.80,ESE,112,0.0,-999.0,98,-99.99,,,1.56,Acu-Link.com,2013-02-05 04:25:00,
2013-02-04 23:40:00,17.6,17.1,29.80,West,270,0.0,-999.0,98,-99.99,,,2.34,Acu-Link.com,2013-02-05 04:40:00,
2013-02-04 23:55:00,19.4,18.9,29.80,NNW,337,0.0,-999.0,98,-99.99,,,2.34,Acu-Link.com,2013-02-05 04:55:00,